Time;durP1;ratioP1;P1;durP2;ratioP2;P2;SDS_P1;SDS_P2;PMS_P1;PMS_P2;Temp;Humidity;BMP_temperature;BMP_pressure;BME280_temperature;BME280_humidity;BME280_pressure;Samples;Min_cycle;Max_cycle;Signal;HPM_P1;HPM_P2
2021/08/05 00:01:24;;;;;;;16.02;8.32;;;;;;;30.91;46.16;99223.72;5073535;28;20067;-74
2021/08/05 00:03:49;;;;;;;9.30;8.13;;;;;;;31.07;46.40;99264.16;5071915;28;20510;-74
2021/08/05 00:06:14;;;;;;;11.40;7.57;;;;;;;30.92;46.52;99233.50;5073351;28;20024;-74
2021/08/05 00:08:40;;;;;;;10.52;8.68;;;;;;;31.08;46.34;99268.47;5073198;28;20036;-74
2021/08/05 00:11:05;;;;;;;9.88;7.72;;;;;;;31.07;46.70;99280.50;5073143;28;20024;-75
2021/08/05 00:13:31;;;;;;;13.75;8.90;;;;;;;31.10;46.45;99282.59;5073114;28;20060;-74
2021/08/05 00:15:56;;;;;;;12.68;8.55;;;;;;;31.06;46.81;99281.63;5072898;28;20463;-74
2021/08/05 00:18:22;;;;;;;11.95;8.55;;;;;;;31.06;46.59;99285.16;5073049;28;20060;-74
2021/08/05 00:20:48;;;;;;;11.95;8.52;;;;;;;31.03;46.82;99285.81;5072856;28;20059;-75
2021/08/05 00:23:14;;;;;;;11.20;8.80;;;;;;;31.03;47.27;99285.00;5071473;28;20035;-74
2021/08/05 00:25:39;;;;;;;11.25;8.63;;;;;;;30.92;47.11;99268.94;5072668;28;20437;-74
2021/08/05 00:28:05;;;;;;;9.45;8.45;;;;;;;30.95;47.34;99289.31;5071464;28;20111;-74
2021/08/05 00:30:30;;;;;;;11.00;7.80;;;;;;;30.81;47.18;99264.94;5073194;28;20048;-73
2021/08/05 00:32:56;;;;;;;9.32;8.27;;;;;;;30.63;46.90;99234.13;5073011;28;20025;-74
2021/08/05 00:35:21;;;;;;;10.65;8.10;;;;;;;30.57;47.13;99235.34;5071316;28;20028;-74
2021/08/05 00:37:47;;;;;;;9.90;8.48;;;;;;;30.93;47.22;99289.63;5071233;28;20111;-74
2021/08/05 00:40:12;;;;;;;9.95;8.57;;;;;;;30.76;46.89;99267.00;5072403;28;20074;-73
2021/08/05 00:42:37;;;;;;;13.02;8.63;;;;;;;30.86;47.11;99294.75;5071181;28;20032;-74
2021/08/05 00:45:03;;;;;;;14.50;8.65;;;;;;;30.68;47.21;99274.03;5072557;28;20111;-74
2021/08/05 00:47:29;;;;;;;11.02;8.73;;;;;;;30.74;47.11;99300.03;5072541;28;20055;-74
2021/08/05 00:49:58;;;;;;;9.43;8.40;;;;;;;30.69;47.21;99293.91;5071274;28;20024;-74
2021/08/05 00:52:24;;;;;;;9.98;8.98;;;;;;;30.47;47.65;99262.06;5072496;28;20052;-73
2021/08/05 00:54:50;;;;;;;11.52;9.15;;;;;;;30.59;48.17;99297.75;5072433;28;20064;-75
2021/08/05 00:57:15;;;;;;;12.10;9.35;;;;;;;30.45;48.17;99275.19;5072337;28;20031;-73
2021/08/05 00:59:41;;;;;;;9.48;8.50;;;;;;;30.28;47.84;99254.97;5072404;28;20029;-73
2021/08/05 01:02:22;;;;;;;10.43;8.38;;;;;;;30.35;48.10;99258.03;5071374;28;20413;-75
2021/08/05 01:04:52;;;;;;;11.52;9.38;;;;;;;30.44;47.94;99285.28;5072033;28;20035;-75
2021/08/05 01:07:32;;;;;;;13.10;10.23;;;;;;;30.41;48.72;99282.41;5072024;28;20126;-75
2021/08/05 01:10:15;;;;;;;12.32;9.88;;;;;;;29.90;49.22;99227.38;5070863;28;20028;-74
2021/08/05 01:12:57;;;;;;;11.20;9.82;;;;;;;30.13;49.71;99285.34;5072150;28;20027;-74
2021/08/05 01:15:24;;;;;;;10.43;9.38;;;;;;;30.15;49.60;99277.66;5072126;28;20058;-74
2021/08/05 01:17:55;;;;;;;11.18;9.70;;;;;;;29.76;49.60;99217.72;5072147;28;20033;-74
2021/08/05 01:20:22;;;;;;;14.35;9.63;;;;;;;30.16;49.49;99278.47;5071810;28;20024;-74
2021/08/05 01:23:02;;;;;;;15.82;9.77;;;;;;;30.14;49.66;99278.78;5071842;28;20461;-74
2021/08/05 01:25:32;;;;;;;11.70;10.45;;;;;;;29.82;49.43;99221.91;5071633;28;20440;-75
2021/08/05 01:28:00;;;;;;;20.52;11.07;;;;;;;30.11;49.34;99276.69;5071727;28;20036;-75
2021/08/05 01:30:27;;;;;;;12.45;10.45;;;;;;;30.08;49.35;99277.31;5071945;28;20032;-73
2021/08/05 01:32:55;;;;;;;12.07;10.77;;;;;;;29.75;49.20;99232.44;5071743;28;20031;-76
2021/08/05 01:35:22;;;;;;;13.10;10.77;;;;;;;29.52;48.84;99216.09;5071671;28;20024;-76
2021/08/05 01:37:49;;;;;;;12.95;9.75;;;;;;;29.40;48.98;99205.75;5070398;28;20518;-75
2021/08/05 01:40:14;;;;;;;12.27;10.93;;;;;;;29.41;49.06;99214.72;5071304;28;20039;-73
2021/08/05 01:42:40;;;;;;;11.10;9.73;;;;;;;29.45;49.13;99232.06;5071439;28;20492;-73
2021/08/05 01:45:09;;;;;;;13.70;10.90;;;;;;;29.63;48.96;99274.59;5071405;28;20040;-74
2021/08/05 01:47:39;;;;;;;11.85;10.65;;;;;;;29.63;48.92;99271.06;5071433;28;20030;-74
2021/08/05 01:50:07;;;;;;;12.27;10.30;;;;;;;29.59;48.75;99280.97;5071542;28;20021;-75
2021/08/05 01:52:36;;;;;;;12.40;11.10;;;;;;;28.84;48.86;99160.06;5071348;28;20266;-75
2021/08/05 01:55:05;;;;;;;14.25;10.73;;;;;;;29.21;48.83;99235.06;5071424;28;20035;-75
2021/08/05 01:57:31;;;;;;;14.30;11.40;;;;;;;29.38;49.02;99275.19;5071486;28;20505;-75
2021/08/05 01:59:57;;;;;;;14.25;11.52;;;;;;;29.30;49.04;99271.28;5071471;28;20059;-75
2021/08/05 02:02:23;;;;;;;12.90;10.93;;;;;;;28.94;49.10;99221.53;5071226;28;20064;-73
2021/08/05 02:05:11;;;;;;;16.25;11.85;;;;;;;29.21;49.50;99266.88;5071172;28;20030;-76
2021/08/05 02:07:53;;;;;;;15.75;11.10;;;;;;;29.24;49.37;99269.00;5071107;28;20024;-76
2021/08/05 02:10:40;;;;;;;13.77;11.23;;;;;;;29.21;49.24;99261.44;5071126;28;20500;-74
2021/08/05 02:13:17;;;;;;;17.58;10.98;;;;;;;29.20;49.52;99260.66;5070869;28;20485;-75
2021/08/05 02:15:55;;;;;;;14.30;10.82;;;;;;;28.81;49.79;99209.56;5070992;28;20393;-75
2021/08/05 02:18:24;;;;;;;16.60;11.30;;;;;;;29.08;49.65;99268.53;5070982;28;20031;-75
2021/08/05 02:20:49;;;;;;;14.18;11.38;;;;;;;28.71;49.98;99212.53;5070953;28;20566;-76
2021/08/05 02:23:17;;;;;;;13.68;11.55;;;;;;;29.06;50.10;99273.47;5069612;28;20033;-79
2021/08/05 02:25:48;;;;;;;13.23;12.00;;;;;;;29.06;50.03;99268.03;5070783;28;20505;-79
2021/08/05 02:28:15;;;;;;;18.73;12.50;;;;;;;29.04;50.05;99281.94;5070941;28;20043;-78
2021/08/05 02:30:41;;;;;;;14.45;11.80;;;;;;;28.65;50.11;99227.31;5070999;28;20382;-79
2021/08/05 02:33:07;;;;;;;12.88;11.57;;;;;;;28.92;50.12;99265.34;5069773;28;20056;-80
2021/08/05 02:35:36;;;;;;;13.75;12.13;;;;;;;28.87;50.46;99259.22;5071086;28;20067;-79
2021/08/05 02:38:02;;;;;;;16.13;12.15;;;;;;;28.94;50.61;99276.69;5071163;28;20036;-80
2021/08/05 02:40:28;;;;;;;14.00;11.82;;;;;;;28.51;50.42;99223.81;5070819;28;20086;-78
2021/08/05 02:42:54;;;;;;;13.93;11.85;;;;;;;28.86;50.58;99274.72;5070957;28;20098;-78
2021/08/05 02:45:20;;;;;;;16.80;12.38;;;;;;;28.60;50.57;99249.16;5071004;28;20424;-79
2021/08/05 02:47:45;;;;;;;14.43;12.02;;;;;;;28.77;50.72;99266.44;5070920;28;20028;-79
2021/08/05 02:50:13;;;;;;;14.55;13.05;;;;;;;28.82;50.70;99278.31;5071012;28;20406;-77
2021/08/05 02:52:40;;;;;;;14.05;12.45;;;;;;;28.78;50.72;99284.34;5070750;28;20021;-77
2021/08/05 02:55:06;;;;;;;13.25;12.02;;;;;;;28.35;50.87;99228.78;5070693;28;20055;-79
2021/08/05 02:57:32;;;;;;;13.68;11.63;;;;;;;28.57;50.83;99266.06;5070816;28;20051;-80
2021/08/05 02:59:58;;;;;;;16.08;12.68;;;;;;;28.37;51.21;99229.28;5069563;28;20054;-80
2021/08/05 03:02:24;;;;;;;14.75;12.82;;;;;;;28.62;51.34;99279.53;5069513;28;20036;-79
2021/08/05 03:04:49;;;;;;;14.13;12.82;;;;;;;28.15;51.89;99228.00;5070588;28;20033;-79
2021/08/05 03:07:15;;;;;;;14.27;12.88;;;;;;;28.20;51.69;99248.00;5070614;28;20029;-79
2021/08/05 03:09:41;;;;;;;18.90;13.63;;;;;;;28.35;51.66;99266.78;5070568;28;20017;-77
2021/08/05 03:12:06;;;;;;;14.18;12.45;;;;;;;28.51;51.78;99289.81;5069393;28;20062;-77
2021/08/05 03:14:32;;;;;;;14.02;12.40;;;;;;;28.51;51.70;99286.28;5070738;28;20112;-78
2021/08/05 03:17:01;;;;;;;16.27;13.30;;;;;;;28.48;51.88;99288.50;5070574;28;20031;-78
2021/08/05 03:19:26;;;;;;;14.75;13.23;;;;;;;28.45;51.48;99282.88;5070586;28;20572;-78
2021/08/05 03:21:52;;;;;;;13.70;12.25;;;;;;;28.33;51.84;99277.16;5070516;28;20175;-78
2021/08/05 03:24:17;;;;;;;16.83;12.90;;;;;;;28.41;51.80;99293.53;5070287;28;20032;-74
2021/08/05 03:26:43;;;;;;;15.93;12.32;;;;;;;28.33;51.91;99283.38;5073406;28;20043;-75
2021/08/05 03:29:08;;;;;;;15.02;13.30;;;;;;;28.16;51.93;99255.97;5074062;28;20020;-74
2021/08/05 03:31:33;;;;;;;14.85;12.88;;;;;;;28.31;52.06;99295.66;5074174;28;20036;-75
2021/08/05 03:33:59;;;;;;;14.90;13.35;;;;;;;28.20;52.42;99278.69;5073946;28;20031;-74
2021/08/05 03:36:24;;;;;;;15.88;13.63;;;;;;;27.98;52.31;99248.69;5073816;28;20052;-74
2021/08/05 03:38:50;;;;;;;17.85;14.13;;;;;;;28.20;52.37;99289.53;5073833;28;20032;-75
2021/08/05 03:41:15;;;;;;;15.02;12.98;;;;;;;28.21;52.38;99285.72;5073883;28;20024;-75
2021/08/05 03:43:41;;;;;;;16.35;14.07;;;;;;;28.21;52.63;99291.16;5073846;28;20032;-75
2021/08/05 03:46:07;;;;;;;18.13;14.68;;;;;;;27.82;52.68;99227.28;5073815;28;20081;-74
2021/08/05 03:48:32;;;;;;;15.57;13.93;;;;;;;28.20;52.79;99288.75;5073765;28;20065;-75
2021/08/05 03:50:58;;;;;;;16.63;15.02;;;;;;;28.24;52.88;99296.03;5073527;28;20533;-75
2021/08/05 03:53:23;;;;;;;14.75;13.35;;;;;;;28.00;52.49;99252.72;5073422;28;20017;-74
2021/08/05 03:55:51;;;;;;;16.98;15.20;;;;;;;28.29;52.85;99304.09;5073441;28;20478;-75
2021/08/05 03:58:16;;;;;;;15.68;14.07;;;;;;;28.33;52.93;99298.88;5072120;28;20028;-75
2021/08/05 04:00:41;;;;;;;15.38;13.77;;;;;;;28.31;52.85;99295.66;5073554;28;20027;-74
2021/08/05 04:03:07;;;;;;;18.23;14.85;;;;;;;28.08;52.79;99264.81;5073276;28;20021;-75
2021/08/05 04:05:32;;;;;;;15.70;14.02;;;;;;;28.24;52.97;99290.63;5073431;28;20480;-75
2021/08/05 04:07:57;;;;;;;15.23;13.88;;;;;;;28.23;53.05;99294.41;5073234;28;20024;-74
2021/08/05 04:10:23;;;;;;;19.02;13.20;;;;;;;28.11;52.94;99273.16;5073259;28;20008;-74
2021/08/05 04:12:49;;;;;;;18.30;14.43;;;;;;;28.27;52.93;99292.72;5073249;28;20534;-73
2021/08/05 04:15:15;;;;;;;15.35;13.77;;;;;;;27.94;52.76;99236.84;5073313;28;20108;-74
2021/08/05 04:17:40;;;;;;;15.57;13.45;;;;;;;28.13;52.89;99272.84;5073287;28;20024;-74
2021/08/05 04:20:07;;;;;;;17.38;15.30;;;;;;;28.25;52.97;99292.22;5073131;28;20031;-75
2021/08/05 04:22:33;;;;;;;14.85;13.05;;;;;;;28.11;52.93;99284.00;5072952;28;20070;-74
2021/08/05 04:24:58;;;;;;;20.25;14.57;;;;;;;28.17;53.00;99295.56;5072943;28;20471;-74
2021/08/05 04:27:24;;;;;;;18.45;14.38;;;;;;;28.21;52.76;99293.06;5072983;28;20503;-74
2021/08/05 04:29:50;;;;;;;16.98;14.25;;;;;;;28.13;53.04;99265.50;5072974;28;20054;-74
2021/08/05 04:32:15;;;;;;;15.93;14.07;;;;;;;28.09;52.68;99252.84;5072773;28;20059;-76
2021/08/05 04:34:40;;;;;;;17.13;14.00;;;;;;;28.39;52.77;99295.75;5072571;28;20016;-75
2021/08/05 04:37:06;;;;;;;19.42;14.60;;;;;;;28.08;52.71;99241.19;5072394;28;20053;-75
2021/08/05 04:39:32;;;;;;;22.95;14.85;;;;;;;28.42;52.66;99283.47;5072572;28;20025;-74
2021/08/05 04:41:57;;;;;;;19.00;13.90;;;;;;;28.53;52.93;99303.91;5072706;28;20032;-73
2021/08/05 04:44:23;;;;;;;16.08;13.55;;;;;;;28.51;52.51;99283.56;5072525;28;20032;-75
2021/08/05 04:46:48;;;;;;;19.15;16.48;;;;;;;28.24;52.52;99241.75;5072683;28;20033;-75
2021/08/05 04:49:13;;;;;;;19.80;15.88;;;;;;;28.59;52.76;99293.72;5072388;28;20060;-75
2021/08/05 04:51:39;;;;;;;16.63;14.93;;;;;;;28.51;53.13;99289.81;5072430;28;20024;-75
2021/08/05 04:54:04;;;;;;;20.85;15.55;;;;;;;28.31;53.03;99273.91;5072343;28;20077;-75
2021/08/05 04:56:31;;;;;;;17.00;15.15;;;;;;;28.48;53.08;99293.13;5070847;28;20112;-74
2021/08/05 04:58:56;;;;;;;19.83;15.90;;;;;;;28.21;53.21;99250.44;5072470;28;20024;-74
2021/08/05 05:01:22;;;;;;;18.20;14.75;;;;;;;27.98;53.18;99202.56;5072202;28;20020;-74
2021/08/05 05:03:49;;;;;;;17.48;15.75;;;;;;;28.22;53.48;99238.47;5071907;28;20028;-74
2021/08/05 05:06:14;;;;;;;20.90;15.32;;;;;;;28.44;53.05;99267.69;5070474;28;20063;-74
2021/08/05 05:08:40;;;;;;;19.48;17.10;;;;;;;27.93;52.95;99179.03;5071880;28;20064;-74
2021/08/05 05:11:05;;;;;;;20.88;15.82;;;;;;;28.57;53.29;99288.59;5072139;28;20070;-74
2021/08/05 05:13:31;;;;;;;16.92;15.10;;;;;;;28.67;52.90;99287.59;5072067;28;20401;-74
2021/08/05 05:15:56;;;;;;;23.08;16.50;;;;;;;28.53;52.83;99246.06;5071935;28;20021;-73
2021/08/05 05:18:24;;;;;;;22.85;16.38;;;;;;;28.79;52.42;99279.72;5072013;28;20020;-73
2021/08/05 05:20:50;;;;;;;19.05;17.00;;;;;;;28.79;52.44;99277.81;5071586;28;20082;-74
2021/08/05 05:23:16;;;;;;;17.52;15.02;;;;;;;28.43;52.73;99220.72;5071564;28;20401;-74
2021/08/05 05:25:42;;;;;;;20.63;16.88;;;;;;;28.75;52.33;99270.56;5071196;28;20045;-74
2021/08/05 05:28:09;;;;;;;18.25;15.38;;;;;;;28.62;52.54;99244.22;5071296;28;20031;-74
2021/08/05 05:30:36;;;;;;;18.65;16.50;;;;;;;28.85;52.41;99280.44;5071557;28;20031;-73
2021/08/05 05:33:02;;;;;;;16.52;13.90;;;;;;;28.95;51.79;99281.03;5071568;28;20017;-74
2021/08/05 05:35:27;;;;;;;18.52;15.65;;;;;;;28.97;51.75;99269.84;5071374;28;20031;-74
2021/08/05 05:37:55;;;;;;;22.52;16.05;;;;;;;28.66;51.55;99212.63;5071301;28;20028;-74
2021/08/05 05:40:21;;;;;;;21.05;14.52;;;;;;;28.99;51.45;99248.63;5071347;28;20069;-74
2021/08/05 05:42:47;;;;;;;23.25;15.55;;;;;;;28.92;51.39;99223.75;5081009;28;20029;-74
2021/08/05 05:45:15;;;;;;;19.20;15.13;;;;;;;29.26;51.17;99278.44;5079813;28;20027;-74
2021/08/05 05:47:41;;;;;;;17.80;15.40;;;;;;;29.30;51.02;99276.72;5091121;28;20016;-74
2021/08/05 05:50:08;;;;;;;19.20;14.32;;;;;;;29.37;51.03;99276.28;5089998;28;20090;-73
2021/08/05 05:52:34;;;;;;;22.55;15.98;;;;;;;29.42;50.68;99268.81;5091317;28;20020;-74
2021/08/05 05:54:59;;;;;;;20.58;15.40;;;;;;;29.32;50.35;99260.91;5084941;28;20027;-74
2021/08/05 05:57:24;;;;;;;18.15;14.80;;;;;;;28.91;50.40;99194.97;5085507;28;20016;-73
2021/08/05 05:59:50;;;;;;;16.52;14.90;;;;;;;29.40;50.04;99262.88;5091167;28;20030;-74
2021/08/05 06:02:15;;;;;;;21.83;16.20;;;;;;;29.31;50.31;99247.63;5090968;28;20096;-73
2021/08/05 06:04:41;;;;;;;21.30;16.13;;;;;;;29.29;50.23;99244.41;5090998;28;20027;-75
2021/08/05 06:07:06;;;;;;;16.17;14.48;;;;;;;29.39;49.86;99263.19;5091167;28;20024;-73
2021/08/05 06:09:31;;;;;;;23.33;14.75;;;;;;;29.04;49.95;99203.13;5091147;28;20047;-74
2021/08/05 06:11:57;;;;;;;15.48;13.93;;;;;;;29.07;49.79;99188.09;5090993;28;20511;-74
2021/08/05 06:14:22;;;;;;;18.10;14.75;;;;;;;29.54;49.48;99256.59;5090826;28;20463;-74
2021/08/05 06:16:48;;;;;;;17.38;12.93;;;;;;;29.60;49.05;99267.06;5090845;28;20019;-74
2021/08/05 06:19:13;;;;;;;19.98;13.27;;;;;;;29.67;48.78;99255.72;5080996;28;20030;-74
2021/08/05 06:21:39;;;;;;;15.02;13.32;;;;;;;29.54;48.19;99219.31;5090389;28;20101;-75
2021/08/05 06:24:05;;;;;;;16.58;13.43;;;;;;;29.80;48.63;99254.88;5091078;28;20031;-74
2021/08/05 06:26:31;;;;;;;15.35;13.23;;;;;;;29.80;48.33;99245.91;5088191;28;20048;-75
2021/08/05 06:28:57;;;;;;;19.30;15.48;;;;;;;29.72;48.81;99233.81;5091029;28;20039;-76
2021/08/05 06:31:22;;;;;;;16.02;13.88;;;;;;;29.29;49.15;99179.94;5090495;28;20027;-72
2021/08/05 06:33:51;;;;;;;16.65;13.43;;;;;;;29.77;48.93;99241.88;5090683;28;20028;-72
2021/08/05 06:36:21;;;;;;;16.27;12.18;;;;;;;29.84;48.83;99238.72;5090936;28;20055;-75
2021/08/05 06:38:48;;;;;;;16.75;15.05;;;;;;;29.67;48.73;99193.94;5091151;28;20032;-75
2021/08/05 06:41:13;;;;;;;16.25;14.20;;;;;;;29.82;48.30;99213.72;5089245;28;20423;-74
2021/08/05 06:43:39;;;;;;;16.92;14.82;;;;;;;30.09;48.49;99238.06;5089407;28;20163;-74
2021/08/05 06:46:05;;;;;;;15.27;13.70;;;;;;;29.85;48.55;99194.06;5090651;28;20507;-75
2021/08/05 06:48:30;;;;;;;16.58;13.75;;;;;;;30.12;48.29;99242.88;5089459;28;20034;-76
2021/08/05 06:50:56;;;;;;;15.05;13.48;;;;;;;29.79;48.21;99182.50;5082711;28;20016;-73
2021/08/05 06:53:21;;;;;;;15.75;13.55;;;;;;;30.19;48.06;99234.25;5086900;28;20043;-75
2021/08/05 06:55:47;;;;;;;13.15;11.27;;;;;;;30.25;48.28;99233.81;5090023;28;20559;-74
2021/08/05 06:58:14;;;;;;;12.48;10.55;;;;;;;30.35;47.85;99238.16;5085548;28;20059;-72
2021/08/05 07:00:39;;;;;;;12.77;11.00;;;;;;;30.07;47.62;99177.69;5090702;28;20024;-73
2021/08/05 07:03:05;;;;;;;14.18;12.63;;;;;;;30.45;47.55;99218.78;5089929;28;20477;-75
2021/08/05 07:05:30;;;;;;;15.63;12.35;;;;;;;30.25;46.98;99167.63;5093674;28;20020;-73
2021/08/05 07:07:56;;;;;;;12.77;11.18;;;;;;;30.63;46.77;99216.97;5094143;28;20032;-74
2021/08/05 07:10:22;;;;;;;14.68;13.05;;;;;;;30.66;46.63;99200.78;5093523;28;20456;-76
2021/08/05 07:12:48;;;;;;;16.35;12.38;;;;;;;30.50;46.78;99163.38;5092168;28;20016;-75
2021/08/05 07:15:13;;;;;;;14.82;12.48;;;;;;;30.74;46.31;99182.81;5092816;28;20492;-74
2021/08/05 07:17:43;;;;;;;12.45;10.98;;;;;;;31.05;46.08;99220.84;5088379;28;20026;-73
2021/08/05 07:20:10;;;;;;;13.50;12.18;;;;;;;31.09;45.77;99191.78;5092525;28;20075;-76
2021/08/05 07:22:35;;;;;;;15.88;12.43;;;;;;;30.95;45.43;99148.34;5092779;28;20039;-74
2021/08/05 07:25:01;;;;;;;12.20;11.00;;;;;;;31.06;44.82;99164.38;5091136;28;20032;-74
2021/08/05 07:27:26;;;;;;;14.38;11.07;;;;;;;31.32;44.76;99189.75;5090447;28;20507;-72
2021/08/05 07:29:52;;;;;;;12.60;11.35;;;;;;;31.04;44.27;99137.41;5078542;28;20488;-76
2021/08/05 07:32:17;;;;;;;13.23;10.45;;;;;;;31.51;44.41;99184.72;5083292;28;20028;-76
2021/08/05 07:34:42;;;;;;;12.10;10.88;;;;;;;31.68;43.68;99180.34;5093338;28;20382;-73
2021/08/05 07:37:08;;;;;;;16.23;11.77;;;;;;;31.37;43.97;99113.19;5093166;28;20561;-73
2021/08/05 07:39:33;;;;;;;14.75;11.43;;;;;;;31.74;43.36;99149.03;5092111;28;20089;-72
2021/08/05 07:41:59;;;;;;;12.98;11.45;;;;;;;31.89;43.22;99168.41;5090055;28;20030;-75
2021/08/05 07:44:24;;;;;;;15.13;10.43;;;;;;;31.94;42.95;99167.41;5092234;28;20062;-75
2021/08/05 07:46:50;;;;;;;15.25;10.55;;;;;;;32.01;42.36;99167.72;5093303;28;20118;-76
2021/08/05 07:49:17;;;;;;;15.60;10.82;;;;;;;32.07;42.29;99160.94;5092033;28;20419;-76
2021/08/05 07:51:42;;;;;;;12.13;10.70;;;;;;;32.15;42.08;99162.03;5091187;28;20551;-74
2021/08/05 07:54:08;;;;;;;13.05;11.70;;;;;;;31.92;41.88;99118.59;5091047;28;20040;-75
2021/08/05 07:56:33;;;;;;;16.27;11.07;;;;;;;31.87;41.69;99090.66;5090516;28;20028;-75
2021/08/05 07:59:00;;;;;;;17.00;10.98;;;;;;;31.94;41.50;99099.13;5085924;28;20454;-74
2021/08/05 08:01:25;;;;;;;20.40;11.88;;;;;;;32.43;41.46;99173.28;5092285;28;20036;-75
2021/08/05 08:03:51;;;;;;;13.07;11.77;;;;;;;32.42;41.23;99145.16;5090320;28;20024;-74
2021/08/05 08:06:16;;;;;;;15.75;11.98;;;;;;;32.42;40.91;99128.78;5092511;28;20435;-75
2021/08/05 08:08:41;;;;;;;14.63;10.65;;;;;;;32.43;41.01;99110.44;5090609;28;20028;-73
2021/08/05 08:11:07;;;;;;;12.60;11.23;;;;;;;32.87;40.43;99160.94;5091341;28;20103;-75
2021/08/05 08:13:33;;;;;;;14.82;10.93;;;;;;;32.70;40.31;99111.81;5092468;28;20153;-73
2021/08/05 08:15:58;;;;;;;12.13;10.88;;;;;;;32.78;40.39;99128.22;5091363;28;20107;-75
2021/08/05 08:18:25;;;;;;;11.95;10.82;;;;;;;33.08;39.56;99155.44;5091381;28;20036;-73
2021/08/05 08:20:51;;;;;;;12.45;11.10;;;;;;;32.67;39.53;99068.75;5091225;28;20020;-75
2021/08/05 08:23:17;;;;;;;13.55;11.35;;;;;;;33.24;39.37;99137.25;5086885;28;20028;-79
2021/08/05 08:25:42;;;;;;;14.32;11.85;;;;;;;33.42;39.10;99140.63;5091955;28;20535;-78
2021/08/05 08:28:08;;;;;;;14.15;11.75;;;;;;;33.52;39.08;99131.22;5091388;28;20024;-79
2021/08/05 08:30:34;;;;;;;16.02;14.13;;;;;;;33.62;38.61;99130.78;5091635;28;20077;-78
2021/08/05 08:33:00;;;;;;;15.10;12.02;;;;;;;33.36;38.55;99081.78;5091398;28;20091;-77
2021/08/05 08:35:26;;;;;;;14.73;11.93;;;;;;;33.69;38.49;99123.59;5089572;28;20022;-78
2021/08/05 08:37:51;;;;;;;14.88;12.18;;;;;;;33.48;38.34;99068.94;5092178;28;20397;-77
2021/08/05 08:40:17;;;;;;;20.83;17.08;;;;;;;33.92;38.50;99106.72;5089444;28;20107;-78
2021/08/05 08:42:43;;;;;;;14.88;13.35;;;;;;;33.97;38.27;99085.38;5085837;28;20104;-79
2021/08/05 08:45:11;;;;;;;15.65;13.05;;;;;;;34.36;37.73;99121.44;5083299;28;20062;-78
2021/08/05 08:47:40;;;;;;;13.05;11.77;;;;;;;34.36;37.26;99096.78;5091883;28;20169;-78
2021/08/05 08:50:05;;;;;;;18.83;12.57;;;;;;;34.55;36.75;99109.84;5091020;28;20123;-78
2021/08/05 08:52:33;;;;;;;16.67;11.40;;;;;;;34.63;37.00;99106.97;5092331;28;20511;-78
2021/08/05 08:55:00;;;;;;;17.27;11.82;;;;;;;34.67;36.24;99101.59;5091132;28;20081;-78
2021/08/05 08:57:32;;;;;;;15.27;11.73;;;;;;;34.56;36.27;99070.31;5092022;28;20431;-79
2021/08/05 08:59:57;;;;;;;15.48;11.38;;;;;;;34.54;36.33;99046.00;5092348;28;20484;-78
2021/08/05 09:02:23;;;;;;;19.20;16.80;;;;;;;35.01;35.87;99081.81;5088008;28;20023;-78
2021/08/05 09:04:49;;;;;;;16.42;14.73;;;;;;;35.19;35.90;99085.03;5089073;28;20049;-79
2021/08/05 09:07:15;;;;;;;18.23;16.30;;;;;;;35.10;34.97;99036.94;5081792;28;20108;-79
2021/08/05 09:09:40;;;;;;;14.93;11.73;;;;;;;35.37;34.97;99051.78;5090362;28;20108;-78
2021/08/05 09:12:13;;;;;;;17.05;11.43;;;;;;;35.59;33.84;99062.91;5088527;28;20458;-79
2021/08/05 09:14:46;;;;;;;14.13;11.13;;;;;;;35.37;33.60;99027.88;5090827;28;20020;-77
2021/08/05 09:17:20;;;;;;;13.82;9.98;;;;;;;35.70;33.03;99056.91;5088430;28;20490;-79
2021/08/05 09:19:47;;;;;;;15.13;9.93;;;;;;;35.50;33.24;99012.09;5088520;28;20385;-79
2021/08/05 09:22:27;;;;;;;13.23;11.00;;;;;;;35.88;32.95;99044.41;5091028;28;20032;-79
2021/08/05 09:24:53;;;;;;;12.85;9.68;;;;;;;35.72;32.30;98991.44;5089654;28;20101;-76
2021/08/05 09:27:31;;;;;;;13.60;10.00;;;;;;;36.25;32.22;99042.06;5089444;28;20036;-75
2021/08/05 09:29:57;;;;;;;14.02;9.30;;;;;;;36.06;32.24;98985.13;5089649;28;20024;-74
2021/08/05 09:32:27;;;;;;;16.08;10.10;;;;;;;36.38;31.85;99002.28;5089223;28;20059;-76
2021/08/05 09:35:05;;;;;;;12.98;9.32;;;;;;;36.51;31.81;99002.97;5083169;28;20032;-74
2021/08/05 09:37:38;;;;;;;13.57;8.88;;;;;;;36.59;31.40;98972.47;5091602;28;20055;-75
2021/08/05 09:40:15;;;;;;;14.45;8.77;;;;;;;36.73;31.31;98963.69;5085859;28;20115;-72
2021/08/05 09:42:53;;;;;;;17.55;10.10;;;;;;;37.20;30.48;99012.91;5085986;28;20028;-73
2021/08/05 09:45:34;;;;;;;12.55;10.65;;;;;;;37.00;30.77;98926.03;5088318;28;20039;-74
2021/08/05 09:48:00;;;;;;;13.50;10.60;;;;;;;37.42;30.52;98950.72;5082048;28;20034;-75
2021/08/05 09:50:26;;;;;;;12.73;8.60;;;;;;;37.58;29.21;98934.03;5091282;28;20106;-74
2021/08/05 09:52:51;;;;;;;10.13;8.73;;;;;;;37.68;29.00;98925.09;5089779;28;20043;-73
2021/08/05 09:55:22;;;;;;;14.15;12.07;;;;;;;38.01;29.04;98962.19;5084071;28;20044;-73
2021/08/05 09:57:56;;;;;;;15.77;10.50;;;;;;;38.37;28.45;98974.44;5090595;28;20028;-73
2021/08/05 10:00:22;;;;;;;12.48;8.18;;;;;;;38.52;27.33;98973.44;5089177;28;20024;-75
2021/08/05 10:02:52;;;;;;;20.35;11.32;;;;;;;38.47;26.99;98926.88;5089354;28;20043;-75
2021/08/05 10:05:21;;;;;;;12.48;7.45;;;;;;;38.92;26.40;98974.66;5090875;28;20024;-73
2021/08/05 10:07:56;;;;;;;15.95;9.98;;;;;;;38.90;25.60;98944.66;5088518;28;20102;-75
2021/08/05 10:10:26;;;;;;;15.02;7.15;;;;;;;39.25;24.04;98962.72;5090991;28;20385;-73
2021/08/05 10:12:53;;;;;;;12.23;6.68;;;;;;;39.15;24.55;98950.41;5088521;28;20080;-75
2021/08/05 10:15:19;;;;;;;14.40;6.88;;;;;;;39.14;23.97;98948.03;5091024;28;20032;-76
2021/08/05 10:17:51;;;;;;;11.52;6.95;;;;;;;39.33;23.65;98950.53;5078785;28;20029;-74
2021/08/05 10:20:17;;;;;;;20.83;12.90;;;;;;;39.31;24.11;98917.78;5087100;28;20028;-74
2021/08/05 10:22:42;;;;;;;14.13;7.25;;;;;;;39.52;24.00;98925.47;5087895;28;20035;-75
2021/08/05 10:25:14;;;;;;;13.90;6.43;;;;;;;39.64;22.84;98911.31;5088818;28;20055;-74
2021/08/05 10:27:40;;;;;;;9.55;5.75;;;;;;;39.76;22.80;98928.72;5087198;28;20136;-75
2021/08/05 10:30:10;;;;;;;11.35;6.85;;;;;;;39.18;23.00;98806.06;5093079;28;20019;-74
2021/08/05 10:32:36;;;;;;;12.95;6.72;;;;;;;39.83;23.17;98877.03;5086513;28;20589;-74
2021/08/05 10:35:02;;;;;;;15.85;7.57;;;;;;;40.24;22.70;98912.75;5090928;28;20036;-75
2021/08/05 10:37:28;;;;;;;10.77;6.47;;;;;;;40.00;22.63;98847.88;5094803;28;20028;-75
2021/08/05 10:39:55;;;;;;;11.82;7.05;;;;;;;40.22;22.29;98855.06;5092877;28;20024;-74
2021/08/05 10:42:21;;;;;;;14.52;7.00;;;;;;;40.67;22.01;98883.19;5094800;28;20449;-74
2021/08/05 10:44:48;;;;;;;11.02;6.20;;;;;;;40.90;22.12;98886.38;5093123;28;20030;-74
2021/08/05 10:47:19;;;;;;;14.00;6.53;;;;;;;41.07;21.02;98875.69;5092537;28;20029;-73
2021/08/05 10:49:47;;;;;;;12.27;5.70;;;;;;;40.91;21.11;98829.81;5093789;28;20080;-74
2021/08/05 10:52:36;;;;;;;17.60;6.53;;;;;;;41.28;20.11;98861.81;5092861;28;20469;-74
2021/08/05 10:55:05;;;;;;;14.73;6.25;;;;;;;41.30;20.38;98828.16;5092123;28;20028;-74
2021/08/05 10:57:31;;;;;;;14.73;6.20;;;;;;;41.30;20.58;98809.56;5093392;28;20039;-76
2021/08/05 11:00:16;;;;;;;17.70;7.10;;;;;;;41.66;19.54;98846.28;5092859;28;20504;-75
2021/08/05 11:02:49;;;;;;;17.35;7.35;;;;;;;41.75;19.68;98838.31;5094241;28;20487;-76
2021/08/05 11:05:24;;;;;;;12.32;6.10;;;;;;;41.79;19.74;98847.41;5092882;28;20039;-74
2021/08/05 11:07:54;;;;;;;13.27;7.65;;;;;;;41.63;19.33;98796.41;5091110;28;20023;-75
2021/08/05 11:10:25;;;;;;;14.63;6.38;;;;;;;41.91;19.01;98821.19;5082258;28;20066;-76
2021/08/05 11:12:57;;;;;;;14.70;8.15;;;;;;;42.05;19.20;98817.56;5073776;28;20055;-76
2021/08/05 11:15:26;;;;;;;15.95;8.23;;;;;;;42.11;18.52;98810.38;5086264;28;20390;-76
2021/08/05 11:18:10;;;;;;;16.42;6.85;;;;;;;42.13;18.62;98794.13;5086642;28;20512;-76
2021/08/05 11:20:40;;;;;;;18.00;10.15;;;;;;;42.07;18.52;98759.69;5093585;28;20470;-74